createdAt,value
2023-02-03T00:00:22.725Z,1023.57
2023-02-03T00:01:22.893Z,1023.60
2023-02-03T00:02:23.096Z,1023.58
2023-02-03T00:03:23.276Z,1023.52
2023-02-03T00:04:23.452Z,1023.52
2023-02-03T00:05:23.623Z,1023.46
2023-02-03T00:06:23.862Z,1023.41
2023-02-03T00:07:23.961Z,1023.46
2023-02-03T00:08:24.144Z,1023.39
2023-02-03T00:09:24.427Z,1023.41
2023-02-03T00:10:24.761Z,1023.38
2023-02-03T00:11:24.706Z,1023.35
2023-02-03T00:12:24.833Z,1023.32
2023-02-03T00:13:25.001Z,1023.30
2023-02-03T00:14:25.225Z,1023.28
2023-02-03T00:15:25.388Z,1023.27
2023-02-03T00:16:25.662Z,1023.26
2023-02-03T00:17:25.714Z,1023.27
2023-02-03T00:18:25.881Z,1023.31
2023-02-03T00:19:26.120Z,1023.24
2023-02-03T00:20:26.628Z,1023.21
2023-02-03T00:21:26.397Z,1023.18
2023-02-03T00:22:26.604Z,1023.11
2023-02-03T00:23:26.738Z,1023.03
2023-02-03T00:24:26.942Z,1023.02
2023-02-03T00:25:27.111Z,1022.99
2023-02-03T00:26:27.280Z,1022.93
2023-02-03T00:27:27.447Z,1022.90
2023-02-03T00:28:27.625Z,1022.80
2023-02-03T00:29:27.892Z,1022.78
2023-02-03T00:30:28.339Z,1022.78
2023-02-03T00:31:28.177Z,1022.71
2023-02-03T00:32:28.595Z,1022.65
2023-02-03T00:33:28.471Z,1022.63
2023-02-03T00:34:28.706Z,1022.63
2023-02-03T00:35:28.826Z,1022.67
2023-02-03T00:36:28.991Z,1022.67
2023-02-03T00:37:29.195Z,1022.69
2023-02-03T00:38:29.329Z,1022.71
2023-02-03T00:39:29.503Z,1022.68
2023-02-03T00:40:29.688Z,1022.65
2023-02-03T00:41:29.853Z,1022.58
2023-02-03T00:42:30.024Z,1022.52
2023-02-03T00:43:30.193Z,1022.49
2023-02-03T00:44:30.497Z,1022.40
2023-02-03T00:45:30.633Z,1022.35
2023-02-03T00:46:30.721Z,1022.30
2023-02-03T00:47:30.961Z,1022.30
2023-02-03T00:48:31.068Z,1022.33
2023-02-03T00:49:31.228Z,1022.31
2023-02-03T00:50:31.455Z,1022.31
2023-02-03T00:51:31.550Z,1022.35
2023-02-03T00:52:31.757Z,1022.34
2023-02-03T00:53:31.948Z,1022.33
2023-02-03T00:54:33.704Z,1022.30
2023-02-03T00:55:32.276Z,1022.36
2023-02-03T00:56:32.429Z,1022.25
2023-02-03T00:57:32.594Z,1022.24
2023-02-03T00:58:32.765Z,1022.30
2023-02-03T00:59:32.929Z,1022.30
2023-02-03T01:00:33.104Z,1022.23
2023-02-03T01:01:33.298Z,1022.19
2023-02-03T01:02:33.509Z,1022.15
2023-02-03T01:03:33.596Z,1022.13
2023-02-03T01:04:33.767Z,1022.11
2023-02-03T01:05:33.928Z,1022.08
2023-02-03T01:06:34.086Z,1022.11
2023-02-03T01:07:34.255Z,1022.06
2023-02-03T01:08:34.418Z,1022.02
2023-02-03T01:09:34.676Z,1022.01
2023-02-03T01:10:34.744Z,1022.01
2023-02-03T01:11:34.907Z,1021.99
2023-02-03T01:12:35.152Z,1021.96
2023-02-03T01:13:35.229Z,1021.97
2023-02-03T01:14:35.448Z,1022.01
2023-02-03T01:15:35.664Z,1021.96
2023-02-03T01:16:35.842Z,1021.93
2023-02-03T01:17:35.970Z,1021.90
2023-02-03T01:18:36.173Z,1021.86
2023-02-03T01:19:36.337Z,1021.87
2023-02-03T01:20:36.500Z,1021.87
2023-02-03T01:21:36.672Z,1021.84
2023-02-03T01:22:36.825Z,1021.83
2023-02-03T01:23:36.977Z,1021.84
2023-02-03T01:24:37.204Z,1021.82
2023-02-03T01:25:37.406Z,1021.87
2023-02-03T01:26:37.530Z,1021.83
2023-02-03T01:27:37.712Z,1021.84
2023-02-03T01:28:37.941Z,1021.81
2023-02-03T01:29:38.030Z,1021.77
2023-02-03T01:30:38.372Z,1021.79
2023-02-03T01:31:38.528Z,1021.76
2023-02-03T01:32:38.527Z,1021.76
2023-02-03T01:33:38.712Z,1021.70
2023-02-03T01:34:38.873Z,1021.60
2023-02-03T01:35:39.033Z,1021.55
2023-02-03T01:36:39.202Z,1021.51
2023-02-03T01:37:39.354Z,1021.50
2023-02-03T01:38:39.569Z,1021.45
2023-02-03T01:39:39.743Z,1021.39
2023-02-03T01:40:39.883Z,1021.39
2023-02-03T01:41:40.058Z,1021.43
2023-02-03T01:42:40.213Z,1021.38
2023-02-03T01:43:40.384Z,1021.33
2023-02-03T01:44:40.532Z,1021.27
2023-02-03T01:45:40.702Z,1021.22
2023-02-03T01:46:40.861Z,1021.24
2023-02-03T01:47:41.013Z,1021.14
2023-02-03T01:48:41.266Z,1021.16
2023-02-03T01:49:41.332Z,1021.12
2023-02-03T01:50:41.505Z,1021.13
2023-02-03T01:51:41.756Z,1021.08
2023-02-03T01:52:41.821Z,1021.04
2023-02-03T01:53:41.983Z,1021.00
2023-02-03T01:54:42.226Z,1020.98
2023-02-03T01:55:42.370Z,1020.96
2023-02-03T01:56:42.508Z,1020.94
2023-02-03T01:57:42.674Z,1020.93
2023-02-03T01:58:42.831Z,1020.88
2023-02-03T01:59:42.995Z,1020.92
2023-02-03T02:00:43.189Z,1020.91
2023-02-03T02:01:43.428Z,1020.83
2023-02-03T02:02:43.580Z,1020.78
2023-02-03T02:03:43.716Z,1020.72
2023-02-03T02:04:43.984Z,1020.72
2023-02-03T02:05:44.025Z,1020.77
2023-02-03T02:06:44.186Z,1020.66
2023-02-03T02:07:44.412Z,1020.70
2023-02-03T02:08:44.532Z,1020.61
2023-02-03T02:09:44.719Z,1020.62
2023-02-03T02:10:44.925Z,1020.56
2023-02-03T02:11:45.045Z,1020.52
2023-02-03T02:12:45.245Z,1020.47
2023-02-03T02:13:45.383Z,1020.42
2023-02-03T02:14:45.602Z,1020.43
2023-02-03T02:15:45.859Z,1020.36
2023-02-03T02:16:45.943Z,1020.36
2023-02-03T02:17:46.091Z,1020.30
2023-02-03T02:18:46.261Z,1020.28
2023-02-03T02:19:46.421Z,1020.24
2023-02-03T02:20:46.590Z,1020.21
2023-02-03T02:21:46.752Z,1020.08
2023-02-03T02:22:46.909Z,1020.09
2023-02-03T02:23:47.080Z,1019.99
2023-02-03T02:24:47.242Z,1019.97
2023-02-03T02:25:47.411Z,1020.02
2023-02-03T02:26:47.567Z,1019.88
2023-02-03T02:27:47.822Z,1019.85
2023-02-03T02:28:47.944Z,1019.87
2023-02-03T02:29:48.069Z,1019.85
2023-02-03T02:30:48.383Z,1019.80
2023-02-03T02:31:48.551Z,1019.81
2023-02-03T02:32:48.589Z,1019.83
2023-02-03T02:33:48.747Z,1019.77
2023-02-03T02:34:48.915Z,1019.78
2023-02-03T02:35:49.092Z,1019.68
2023-02-03T02:36:49.264Z,1019.61
2023-02-03T02:37:49.416Z,1019.61
2023-02-03T02:38:49.583Z,1019.54
2023-02-03T02:39:49.749Z,1019.55
2023-02-03T02:40:49.927Z,1019.49
2023-02-03T02:41:50.142Z,1019.51
2023-02-03T02:42:50.277Z,1019.50
2023-02-03T02:43:50.447Z,1019.50
2023-02-03T02:44:50.713Z,1019.52
2023-02-03T02:45:50.831Z,1019.42
2023-02-03T02:46:50.949Z,1019.39
2023-02-03T02:47:51.125Z,1019.34
2023-02-03T02:48:51.280Z,1019.37
2023-02-03T02:49:51.441Z,1019.46
2023-02-03T02:50:51.607Z,1019.36
2023-02-03T02:51:51.772Z,1019.31
2023-02-03T02:52:51.944Z,1019.39
2023-02-03T02:53:52.097Z,1019.30
2023-02-03T02:54:52.319Z,1019.27
2023-02-03T02:55:52.487Z,1019.27
2023-02-03T02:56:52.659Z,1019.24
2023-02-03T02:57:52.828Z,1019.23
2023-02-03T02:58:52.984Z,1019.05
2023-02-03T02:59:53.160Z,1019.11
2023-02-03T03:00:53.469Z,1019.12
2023-02-03T03:01:53.577Z,1019.05
2023-02-03T03:02:53.693Z,1019.07
2023-02-03T03:03:53.872Z,1019.03
2023-02-03T03:04:54.071Z,1019.11
2023-02-03T03:05:54.227Z,1019.17
2023-02-03T03:06:54.401Z,1019.12
2023-02-03T03:07:54.557Z,1019.07
2023-02-03T03:08:54.748Z,1019.00
2023-02-03T03:09:54.884Z,1018.95
2023-02-03T03:10:55.077Z,1018.92
2023-02-03T03:11:55.234Z,1018.97
2023-02-03T03:12:55.394Z,1018.99
2023-02-03T03:13:55.571Z,1018.95
2023-02-03T03:14:55.745Z,1018.96
2023-02-03T03:15:55.976Z,1018.91
2023-02-03T03:16:56.086Z,1018.86
2023-02-03T03:17:56.256Z,1018.78
2023-02-03T03:18:56.422Z,1018.69
2023-02-03T03:19:56.651Z,1018.67
2023-02-03T03:20:56.784Z,1018.71
2023-02-03T03:21:56.948Z,1018.68
2023-02-03T03:22:57.174Z,1018.68
2023-02-03T03:23:57.277Z,1018.66
2023-02-03T03:24:57.433Z,1018.61
2023-02-03T03:25:57.608Z,1018.59
2023-02-03T03:26:57.773Z,1018.54
2023-02-03T03:27:58.024Z,1018.49
2023-02-03T03:28:58.090Z,1018.43
2023-02-03T03:29:58.253Z,1018.37
2023-02-03T03:30:58.525Z,1018.41
2023-02-03T03:31:58.683Z,1018.39
2023-02-03T03:32:58.797Z,1018.40
2023-02-03T03:33:58.941Z,1018.34
2023-02-03T03:34:59.141Z,1018.39
2023-02-03T03:35:59.416Z,1018.35
2023-02-03T03:36:59.469Z,1018.29
2023-02-03T03:37:59.674Z,1018.22
2023-02-03T03:38:59.791Z,1018.24
2023-02-03T03:39:59.986Z,1018.23
2023-02-03T03:41:00.157Z,1018.25
2023-02-03T03:42:00.309Z,1018.21
2023-02-03T03:43:00.506Z,1018.22
2023-02-03T03:44:00.696Z,1018.22
2023-02-03T03:45:00.883Z,1018.29
2023-02-03T03:46:01.178Z,1018.33
2023-02-03T03:47:01.219Z,1018.30
2023-02-03T03:48:01.410Z,1018.26
2023-02-03T03:49:01.598Z,1018.27
2023-02-03T03:50:01.762Z,1018.25
2023-02-03T03:51:01.958Z,1018.21
2023-02-03T03:52:02.121Z,1018.19
2023-02-03T03:53:02.283Z,1018.18
2023-02-03T03:54:02.448Z,1018.23
2023-02-03T03:55:02.607Z,1018.16
2023-02-03T03:56:02.868Z,1018.19
2023-02-03T03:57:02.941Z,1018.21
2023-02-03T03:58:03.140Z,1018.19
2023-02-03T03:59:03.349Z,1018.20
2023-02-03T04:00:03.470Z,1018.21
2023-02-03T04:01:03.698Z,1018.21
2023-02-03T04:02:03.949Z,1018.18
2023-02-03T04:03:04.028Z,1018.20
2023-02-03T04:04:04.139Z,1018.18
2023-02-03T04:05:04.311Z,1018.20
2023-02-03T04:06:04.519Z,1018.20
2023-02-03T04:07:04.685Z,1018.15
2023-02-03T04:08:04.837Z,1018.10
2023-02-03T04:09:04.990Z,1018.07
2023-02-03T04:10:05.196Z,1018.01
2023-02-03T04:11:05.350Z,1018.00
2023-02-03T04:12:05.522Z,1018.01
2023-02-03T04:13:05.670Z,1017.96
2023-02-03T04:14:05.855Z,1017.93
2023-02-03T04:15:06.047Z,1017.91
2023-02-03T04:16:06.254Z,1017.88
2023-02-03T04:17:06.407Z,1017.85
2023-02-03T04:18:06.683Z,1017.88
2023-02-03T04:19:08.422Z,1017.91
2023-02-03T04:20:06.936Z,1017.87
2023-02-03T04:21:07.097Z,1017.79
2023-02-03T04:22:07.217Z,1017.79
2023-02-03T04:23:07.409Z,1017.83
2023-02-03T04:24:07.607Z,1017.82
2023-02-03T04:25:07.846Z,1017.78
2023-02-03T04:26:07.956Z,1017.71
2023-02-03T04:27:08.118Z,1017.66
2023-02-03T04:28:08.384Z,1017.57
2023-02-03T04:29:08.439Z,1017.58
2023-02-03T04:30:08.653Z,1017.57
2023-02-03T04:31:08.846Z,1017.58
2023-02-03T04:32:09.061Z,1017.57
2023-02-03T04:33:09.226Z,1017.48
2023-02-03T04:34:09.301Z,1017.47
2023-02-03T04:35:09.461Z,1017.45
2023-02-03T04:36:09.690Z,1017.45
2023-02-03T04:37:09.796Z,1017.34
2023-02-03T04:38:09.997Z,1017.38
2023-02-03T04:39:10.170Z,1017.38
2023-02-03T04:40:10.327Z,1017.39
2023-02-03T04:41:10.501Z,1017.36
2023-02-03T04:42:10.660Z,1017.36
2023-02-03T04:43:10.821Z,1017.25
2023-02-03T04:44:10.976Z,1017.26
2023-02-03T04:45:11.138Z,1017.20
2023-02-03T04:46:11.357Z,1017.23
2023-02-03T04:47:11.483Z,1017.17
2023-02-03T04:48:11.647Z,1017.06
2023-02-03T04:49:11.820Z,1016.96
2023-02-03T04:50:11.983Z,1016.88
2023-02-03T04:51:12.239Z,1016.87
2023-02-03T04:52:12.305Z,1016.93
2023-02-03T04:53:13.673Z,1016.94
2023-02-03T04:54:12.689Z,1016.91
2023-02-03T04:55:12.840Z,1016.85
2023-02-03T04:56:13.083Z,1016.82
2023-02-03T04:57:13.193Z,1016.85
2023-02-03T04:58:13.425Z,1016.82
2023-02-03T04:59:13.544Z,1016.80
2023-02-03T05:00:13.734Z,1016.80
2023-02-03T05:01:14.111Z,1016.81
2023-02-03T05:02:14.076Z,1016.84
2023-02-03T05:03:14.269Z,1016.87
2023-02-03T05:04:14.507Z,1016.78
2023-02-03T05:05:14.573Z,1016.80
2023-02-03T05:06:14.753Z,1016.75
2023-02-03T05:07:14.973Z,1016.71
2023-02-03T05:08:15.102Z,1016.73
2023-02-03T05:09:15.265Z,1016.81
2023-02-03T05:10:15.429Z,1016.80
2023-02-03T05:11:15.612Z,1016.79
2023-02-03T05:12:15.802Z,1016.78
2023-02-03T05:13:16.021Z,1016.81
2023-02-03T05:14:16.147Z,1016.83
2023-02-03T05:15:16.294Z,1016.81
2023-02-03T05:16:16.566Z,1016.73
2023-02-03T05:17:16.626Z,1016.77
2023-02-03T05:18:16.797Z,1016.72
2023-02-03T05:19:16.996Z,1016.68
2023-02-03T05:20:17.153Z,1016.66
2023-02-03T05:21:17.343Z,1016.60
2023-02-03T05:22:17.515Z,1016.54
2023-02-03T05:23:17.680Z,1016.59
2023-02-03T05:24:17.837Z,1016.54
2023-02-03T05:25:18.013Z,1016.56
2023-02-03T05:26:18.203Z,1016.48
2023-02-03T05:27:18.362Z,1016.46
2023-02-03T05:28:18.579Z,1016.47
2023-02-03T05:29:18.750Z,1016.41
2023-02-03T05:30:18.884Z,1016.40
2023-02-03T05:31:19.283Z,1016.40
2023-02-03T05:32:19.278Z,1016.40
2023-02-03T05:33:19.370Z,1016.36
2023-02-03T05:34:19.545Z,1016.38
2023-02-03T05:35:19.745Z,1016.42
2023-02-03T05:36:19.894Z,1016.41
2023-02-03T05:37:20.067Z,1016.37
2023-02-03T05:38:20.298Z,1016.41
2023-02-03T05:39:20.412Z,1016.39
2023-02-03T05:40:20.563Z,1016.44
2023-02-03T05:41:20.767Z,1016.40
2023-02-03T05:42:20.901Z,1016.38
2023-02-03T05:43:21.080Z,1016.36
2023-02-03T05:44:21.270Z,1016.31
2023-02-03T05:45:21.433Z,1016.32
2023-02-03T05:46:21.620Z,1016.30
2023-02-03T05:47:21.776Z,1016.31
2023-02-03T05:48:21.951Z,1016.31
2023-02-03T05:49:22.141Z,1016.34
2023-02-03T05:50:22.311Z,1016.29
2023-02-03T05:51:22.500Z,1016.26
2023-02-03T05:52:22.676Z,1016.21
2023-02-03T05:53:22.874Z,1016.24
2023-02-03T05:54:23.016Z,1016.17
2023-02-03T05:55:23.208Z,1016.09
2023-02-03T05:56:23.371Z,1016.08
2023-02-03T05:57:23.555Z,1016.12
2023-02-03T05:58:23.712Z,1016.11
2023-02-03T05:59:23.872Z,1016.08
2023-02-03T06:00:24.031Z,1016.04
2023-02-03T06:01:24.209Z,1015.97
2023-02-03T06:02:24.450Z,1015.97
2023-02-03T06:03:24.621Z,1015.86
2023-02-03T06:04:24.768Z,1015.90
2023-02-03T06:05:25.030Z,1015.92
2023-02-03T06:06:25.129Z,1015.90
2023-02-03T06:07:25.297Z,1015.90
2023-02-03T06:08:25.542Z,1015.79
2023-02-03T06:09:25.641Z,1015.83
2023-02-03T06:10:26.197Z,1015.79
2023-02-03T06:11:26.058Z,1015.71
2023-02-03T06:12:28.278Z,1015.68
2023-02-03T06:13:26.322Z,1015.63
2023-02-03T06:14:26.489Z,1015.65
2023-02-03T06:15:26.657Z,1015.59
2023-02-03T06:16:26.916Z,1015.57
2023-02-03T06:17:26.991Z,1015.53
2023-02-03T06:18:27.209Z,1015.52
2023-02-03T06:19:27.339Z,1015.49
2023-02-03T06:20:27.883Z,1015.52
2023-02-03T06:21:27.806Z,1015.45
2023-02-03T06:22:27.844Z,1015.43
2023-02-03T06:23:28.011Z,1015.50
2023-02-03T06:24:28.260Z,1015.49
2023-02-03T06:25:28.374Z,1015.47
2023-02-03T06:26:28.543Z,1015.50
2023-02-03T06:27:28.680Z,1015.50
2023-02-03T06:28:28.883Z,1015.42
2023-02-03T06:29:29.012Z,1015.42
2023-02-03T06:30:29.666Z,1015.46
2023-02-03T06:31:29.608Z,1015.48
2023-02-03T06:32:29.518Z,1015.48
2023-02-03T06:33:29.679Z,1015.51
2023-02-03T06:34:29.839Z,1015.56
2023-02-03T06:35:30.011Z,1015.50
2023-02-03T06:36:30.201Z,1015.46
2023-02-03T06:37:30.359Z,1015.46
2023-02-03T06:38:30.535Z,1015.46
2023-02-03T06:39:30.711Z,1015.48
2023-02-03T06:40:31.279Z,1015.47
2023-02-03T06:41:31.091Z,1015.46
2023-02-03T06:42:31.300Z,1015.44
2023-02-03T06:43:31.414Z,1015.42
2023-02-03T06:44:31.598Z,1015.45
2023-02-03T06:45:31.792Z,1015.50
2023-02-03T06:46:32.109Z,1015.40
2023-02-03T06:47:32.143Z,1015.41
2023-02-03T06:48:32.354Z,1015.40
2023-02-03T06:49:32.459Z,1015.43
2023-02-03T06:50:32.650Z,1015.35
2023-02-03T06:51:32.935Z,1015.31
2023-02-03T06:52:32.998Z,1015.34
2023-02-03T06:53:33.159Z,1015.22
2023-02-03T06:54:33.365Z,1015.26
2023-02-03T06:55:33.517Z,1015.28
2023-02-03T06:56:33.717Z,1015.34
2023-02-03T06:57:33.860Z,1015.31
2023-02-03T06:58:34.019Z,1015.35
2023-02-03T06:59:34.283Z,1015.31
2023-02-03T07:00:34.395Z,1015.31
2023-02-03T07:01:34.629Z,1015.28
2023-02-03T07:02:34.841Z,1015.32
2023-02-03T07:03:34.897Z,1015.26
2023-02-03T07:04:35.088Z,1015.29
2023-02-03T07:05:35.328Z,1015.26
2023-02-03T07:06:35.474Z,1015.20
2023-02-03T07:07:35.617Z,1015.17
2023-02-03T07:08:35.854Z,1015.21
2023-02-03T07:09:35.967Z,1015.19
2023-02-03T07:10:36.137Z,1015.16
2023-02-03T07:11:36.364Z,1015.16
2023-02-03T07:12:36.598Z,1015.10
2023-02-03T07:13:36.667Z,1015.08
2023-02-03T07:14:36.839Z,1015.13
2023-02-03T07:15:37.069Z,1015.04
2023-02-03T07:16:37.197Z,1015.09
2023-02-03T07:17:37.345Z,1015.03
2023-02-03T07:18:47.656Z,1015.04
2023-02-03T07:19:38.664Z,1015.10
2023-02-03T07:20:37.841Z,1015.06
2023-02-03T07:21:38.079Z,1015.01
2023-02-03T07:22:38.196Z,1015.06
2023-02-03T07:23:38.348Z,1015.03
2023-02-03T07:24:38.578Z,1015.01
2023-02-03T07:25:38.729Z,1014.99
2023-02-03T07:26:38.916Z,1014.90
2023-02-03T07:27:39.144Z,1014.82
2023-02-03T07:28:39.254Z,1014.86
2023-02-03T07:29:39.446Z,1014.83
2023-02-03T07:30:39.599Z,1014.83
2023-02-03T07:31:39.830Z,1014.75
2023-02-03T07:32:39.959Z,1014.75
2023-02-03T07:33:40.125Z,1014.79
2023-02-03T07:34:40.361Z,1014.71
2023-02-03T07:35:40.501Z,1014.64
2023-02-03T07:36:40.781Z,1014.68
2023-02-03T07:37:40.879Z,1014.66
2023-02-03T07:38:41.023Z,1014.55
2023-02-03T07:39:41.177Z,1014.53
2023-02-03T07:40:41.355Z,1014.57
2023-02-03T07:41:41.516Z,1014.55
2023-02-03T07:42:41.669Z,1014.60
2023-02-03T07:43:41.828Z,1014.51
2023-02-03T07:44:42.006Z,1014.52
2023-02-03T07:45:42.181Z,1014.47
2023-02-03T07:46:42.413Z,1014.47
2023-02-03T07:47:42.598Z,1014.52
2023-02-03T07:48:42.738Z,1014.41
2023-02-03T07:49:42.929Z,1014.47
2023-02-03T07:50:43.053Z,1014.42
2023-02-03T07:51:43.204Z,1014.39
2023-02-03T07:52:43.379Z,1014.37
2023-02-03T07:53:43.530Z,1014.37
2023-02-03T07:54:43.720Z,1014.40
2023-02-03T07:55:43.859Z,1014.35
2023-02-03T07:56:44.020Z,1014.29
2023-02-03T07:57:44.281Z,1014.19
2023-02-03T07:58:44.373Z,1014.26
2023-02-03T07:59:44.596Z,1014.21
2023-02-03T08:00:44.725Z,1014.18
2023-02-03T08:01:44.901Z,1014.18
2023-02-03T08:02:45.117Z,1014.25
2023-02-03T08:03:45.265Z,1014.10
2023-02-03T08:04:45.468Z,1014.16
2023-02-03T08:05:45.660Z,1014.08
2023-02-03T08:06:45.743Z,1014.14
2023-02-03T08:07:45.898Z,1014.05
2023-02-03T08:08:46.119Z,1013.99
2023-02-03T08:09:46.247Z,1014.06
2023-02-03T08:10:46.400Z,1013.96
2023-02-03T08:11:46.588Z,1014.00
2023-02-03T08:12:46.776Z,1013.94
2023-02-03T08:13:46.906Z,1013.75
2023-02-03T08:14:47.103Z,1013.84
2023-02-03T08:15:47.275Z,1013.91
2023-02-03T08:16:47.436Z,1013.90
2023-02-03T08:17:47.668Z,1013.86
2023-02-03T08:18:47.763Z,1013.83
2023-02-03T08:19:47.917Z,1013.80
2023-02-03T08:20:48.112Z,1013.73
2023-02-03T08:21:48.360Z,1013.82
2023-02-03T08:22:48.469Z,1013.84
2023-02-03T08:23:48.653Z,1013.79
2023-02-03T08:24:48.876Z,1013.83
2023-02-03T08:25:48.973Z,1013.77
2023-02-03T08:26:49.146Z,1013.78
2023-02-03T08:27:49.393Z,1013.79
2023-02-03T08:28:49.454Z,1013.69
2023-02-03T08:29:49.676Z,1013.74
2023-02-03T08:30:49.864Z,1013.70
2023-02-03T08:31:50.148Z,1013.75
2023-02-03T08:32:50.144Z,1013.72
2023-02-03T08:33:50.366Z,1013.69
2023-02-03T08:34:50.499Z,1013.65
2023-02-03T08:35:50.654Z,1013.60
2023-02-03T08:36:50.866Z,1013.65
2023-02-03T08:37:51.015Z,1013.57
2023-02-03T08:38:51.214Z,1013.59
2023-02-03T08:39:51.353Z,1013.61
2023-02-03T08:40:51.564Z,1013.63
2023-02-03T08:41:51.690Z,1013.54
2023-02-03T08:42:51.839Z,1013.63
2023-02-03T08:43:52.082Z,1013.55
2023-02-03T08:44:52.185Z,1013.55
2023-02-03T08:45:52.441Z,1013.46
2023-02-03T08:46:52.621Z,1013.47
2023-02-03T08:47:52.748Z,1013.46
2023-02-03T08:48:52.938Z,1013.50
2023-02-03T08:49:53.093Z,1013.52
2023-02-03T08:50:53.269Z,1013.36
2023-02-03T08:51:53.458Z,1013.43
2023-02-03T08:52:53.605Z,1013.46
2023-02-03T08:53:53.761Z,1013.45
2023-02-03T08:54:53.987Z,1013.43
2023-02-03T08:55:54.131Z,1013.26
2023-02-03T08:56:54.341Z,1013.20
2023-02-03T08:57:54.481Z,1013.23
2023-02-03T08:58:55.964Z,1013.19
2023-02-03T08:59:54.835Z,1013.25
2023-02-03T09:00:55.028Z,1013.23
2023-02-03T09:01:55.169Z,1013.20
2023-02-03T09:02:55.328Z,1013.17
2023-02-03T09:03:55.473Z,1013.08
2023-02-03T09:04:55.670Z,1013.19
2023-02-03T09:05:55.814Z,1013.19
2023-02-03T09:06:55.949Z,1013.13
2023-02-03T09:07:56.148Z,1013.15
2023-02-03T09:08:56.310Z,1013.21
2023-02-03T09:09:56.502Z,1013.24
2023-02-03T09:10:56.672Z,1013.17
2023-02-03T09:11:57.106Z,1013.25
2023-02-03T09:12:57.020Z,1013.15
2023-02-03T09:13:57.201Z,1013.17
2023-02-03T09:14:57.338Z,1013.16
2023-02-03T09:15:57.510Z,1013.21
2023-02-03T09:16:57.804Z,1013.10
2023-02-03T09:17:57.933Z,1013.11
2023-02-03T09:18:58.025Z,1013.04
2023-02-03T09:19:58.232Z,1013.06
2023-02-03T09:20:58.349Z,1013.15
2023-02-03T09:21:58.543Z,1013.09
2023-02-03T09:22:58.717Z,1013.00
2023-02-03T09:23:58.880Z,1012.99
2023-02-03T09:24:59.054Z,1012.96
2023-02-03T09:25:59.259Z,1012.92
2023-02-03T09:26:59.409Z,1012.92
2023-02-03T09:27:59.641Z,1012.90
2023-02-03T09:28:59.799Z,1012.93
2023-02-03T09:29:59.975Z,1012.91
2023-02-03T09:31:00.201Z,1012.83
2023-02-03T09:32:00.381Z,1012.82
2023-02-03T09:33:00.548Z,1012.76
2023-02-03T09:34:00.676Z,1012.78
2023-02-03T09:35:00.872Z,1012.76
2023-02-03T09:36:00.996Z,1012.71
2023-02-03T09:37:01.172Z,1012.76
2023-02-03T09:38:01.329Z,1012.68
2023-02-03T09:39:01.478Z,1012.81
2023-02-03T09:40:01.689Z,1012.75
2023-02-03T09:41:11.291Z,1012.53
2023-02-03T09:42:03.029Z,1012.62
2023-02-03T09:43:02.190Z,1012.67
2023-02-03T09:44:02.348Z,1012.68
2023-02-03T09:45:02.509Z,1012.64
2023-02-03T09:46:02.739Z,1012.77
2023-02-03T09:47:02.887Z,1012.54
2023-02-03T09:48:03.101Z,1012.59
2023-02-03T09:49:03.199Z,1012.58
2023-02-03T09:50:03.369Z,1012.49
2023-02-03T09:51:03.549Z,1012.57
2023-02-03T09:52:03.728Z,1012.56
2023-02-03T09:53:03.910Z,1012.66
2023-02-03T09:54:04.085Z,1012.55
2023-02-03T09:55:04.232Z,1012.53
2023-02-03T09:56:04.440Z,1012.59
2023-02-03T09:57:04.578Z,1012.66
2023-02-03T09:58:04.743Z,1012.52
2023-02-03T09:59:04.889Z,1012.51
2023-02-03T10:00:05.088Z,1012.53
2023-02-03T10:01:05.360Z,1012.58
2023-02-03T10:02:05.549Z,1012.36
2023-02-03T10:03:05.605Z,1012.50
2023-02-03T10:04:05.798Z,1012.54
2023-02-03T10:05:05.967Z,1012.38
2023-02-03T10:06:06.147Z,1012.51
2023-02-03T10:07:06.308Z,1012.36
2023-02-03T10:08:06.495Z,1012.40
2023-02-03T10:09:06.626Z,1012.36
2023-02-03T10:10:06.798Z,1012.31
2023-02-03T10:11:07.020Z,1012.30
2023-02-03T10:12:07.151Z,1012.22
2023-02-03T10:13:07.319Z,1012.20
2023-02-03T10:14:07.468Z,1012.19
2023-02-03T10:15:07.636Z,1012.16
2023-02-03T10:16:07.807Z,1011.94
2023-02-03T10:17:08.225Z,1012.00
2023-02-03T10:18:08.159Z,1011.97
2023-02-03T10:19:08.327Z,1011.86
2023-02-03T10:20:08.517Z,1011.76
2023-02-03T10:21:08.697Z,1011.71
2023-02-03T10:22:08.878Z,1011.65
2023-02-03T10:23:09.075Z,1011.64
2023-02-03T10:24:09.227Z,1011.50
2023-02-03T10:25:09.420Z,1011.58
2023-02-03T10:26:09.607Z,1011.54
2023-02-03T10:27:09.766Z,1011.59
2023-02-03T10:28:10.012Z,1011.50
2023-02-03T10:29:10.080Z,1011.51
2023-02-03T10:30:10.271Z,1011.50
2023-02-03T10:31:10.632Z,1011.61
2023-02-03T10:32:10.796Z,1011.67
2023-02-03T10:33:10.781Z,1011.66
2023-02-03T10:34:10.992Z,1011.52
2023-02-03T10:35:11.180Z,1011.67
2023-02-03T10:36:11.306Z,1011.69
2023-02-03T10:37:11.446Z,1011.66
2023-02-03T10:38:11.689Z,1011.67
2023-02-03T10:39:11.830Z,1011.73
2023-02-03T10:40:11.981Z,1011.73
2023-02-03T10:41:12.339Z,1011.72
2023-02-03T10:42:12.356Z,1011.67
2023-02-03T10:43:12.499Z,1011.85
2023-02-03T10:44:12.664Z,1011.89
2023-02-03T10:45:12.805Z,1011.90
2023-02-03T10:46:13.038Z,1011.94
2023-02-03T10:47:13.145Z,1012.21
2023-02-03T10:48:13.376Z,1012.22
2023-02-03T10:49:14.104Z,1012.27
2023-02-03T10:50:13.740Z,1012.44
2023-02-03T10:51:13.902Z,1012.34
2023-02-03T10:52:14.076Z,1012.32
2023-02-03T10:53:14.246Z,1012.48
2023-02-03T10:54:14.410Z,1012.67
2023-02-03T10:55:14.564Z,1012.47
2023-02-03T10:56:14.719Z,1012.70
2023-02-03T10:57:14.933Z,1012.80
2023-02-03T10:58:15.085Z,1012.78
2023-02-03T10:59:15.235Z,1012.95
2023-02-03T11:00:15.433Z,1012.84
2023-02-03T11:01:15.671Z,1012.73
2023-02-03T11:02:15.830Z,1012.63
2023-02-03T11:03:15.979Z,1012.96
2023-02-03T11:04:16.132Z,1012.79
2023-02-03T11:05:16.320Z,1012.87
2023-02-03T11:06:16.512Z,1012.34
2023-02-03T11:07:16.654Z,1012.76
2023-02-03T11:08:16.885Z,1012.85
2023-02-03T11:09:17.014Z,1012.79
2023-02-03T11:10:17.221Z,1012.85
2023-02-03T11:11:17.404Z,1012.83
2023-02-03T11:12:17.581Z,1012.74
2023-02-03T11:13:17.793Z,1012.77
2023-02-03T11:14:17.938Z,1012.85
2023-02-03T11:15:18.119Z,1012.79
2023-02-03T11:16:18.369Z,1012.72
2023-02-03T11:17:18.483Z,1012.77
2023-02-03T11:18:18.693Z,1012.65
2023-02-03T11:19:18.836Z,1012.80
2023-02-03T11:20:19.079Z,1012.73
2023-02-03T11:21:19.215Z,1012.73
2023-02-03T11:22:19.395Z,1012.76
2023-02-03T11:23:20.361Z,1012.83
2023-02-03T11:24:19.777Z,1012.89
2023-02-03T11:25:19.958Z,1012.86
2023-02-03T11:26:20.105Z,1012.73
2023-02-03T11:27:20.243Z,1012.81
2023-02-03T11:28:20.629Z,1012.77
2023-02-03T11:29:22.815Z,1012.53
2023-02-03T11:30:20.774Z,1012.80
2023-02-03T11:31:21.080Z,1012.69
2023-02-03T11:32:21.122Z,1012.78
2023-02-03T11:33:21.284Z,1012.75
2023-02-03T11:34:21.453Z,1012.75
2023-02-03T11:35:23.829Z,1012.61
2023-02-03T11:36:21.793Z,1012.67
2023-02-03T11:37:21.957Z,1012.59
2023-02-03T11:38:22.145Z,1012.70
2023-02-03T11:39:22.312Z,1012.77
2023-02-03T11:40:22.528Z,1012.77
2023-02-03T11:41:24.001Z,1012.83
2023-02-03T11:42:22.860Z,1012.74
2023-02-03T11:43:23.020Z,1012.73
2023-02-03T11:44:23.188Z,1012.87
2023-02-03T11:45:23.342Z,1012.92
2023-02-03T11:46:23.595Z,1012.93
2023-02-03T11:47:23.978Z,1012.88
2023-02-03T11:48:23.911Z,1012.85
2023-02-03T11:49:24.045Z,1012.81
2023-02-03T11:50:24.253Z,1012.93
2023-02-03T11:51:24.415Z,1012.84
2023-02-03T11:52:24.573Z,1012.99
2023-02-03T11:53:24.839Z,1012.88
2023-02-03T11:54:24.972Z,1012.69
2023-02-03T11:55:25.112Z,1012.81
2023-02-03T11:56:25.265Z,1012.84
2023-02-03T11:57:25.431Z,1012.77
2023-02-03T11:58:25.613Z,1012.69
2023-02-03T11:59:25.766Z,1012.75
2023-02-03T12:00:26.256Z,1012.87
2023-02-03T12:01:26.113Z,1012.48
2023-02-03T12:02:26.309Z,1012.83
2023-02-03T12:03:26.516Z,1012.89
2023-02-03T12:04:26.711Z,1012.77
2023-02-03T12:05:26.802Z,1012.95
2023-02-03T12:06:26.970Z,1012.84
2023-02-03T12:07:27.124Z,1012.82